createdAt,value
2018-03-23T00:01:48.487Z,29.30
2018-03-23T00:04:16.071Z,37.13
2018-03-23T00:06:43.686Z,31.80
2018-03-23T00:09:11.321Z,34.97
2018-03-23T00:11:38.954Z,36.77
2018-03-23T00:14:06.575Z,32.83
2018-03-23T00:16:34.178Z,32.17
2018-03-23T00:19:01.810Z,33.37
2018-03-23T00:21:29.413Z,31.97
2018-03-23T00:23:57.056Z,37.43
2018-03-23T00:26:24.730Z,34.90
2018-03-23T00:28:52.391Z,39.37
2018-03-23T00:31:19.983Z,37.40
2018-03-23T00:33:47.639Z,40.20
2018-03-23T00:36:15.251Z,35.87
2018-03-23T00:38:42.882Z,37.00
2018-03-23T00:41:10.467Z,36.77
2018-03-23T00:43:38.112Z,46.63
2018-03-23T00:46:05.719Z,38.60
2018-03-23T00:48:33.387Z,37.00
2018-03-23T00:51:00.978Z,37.20
2018-03-23T00:53:28.631Z,32.97
2018-03-23T00:55:56.231Z,37.83
2018-03-23T00:58:23.871Z,41.50
2018-03-23T01:00:51.598Z,39.90
2018-03-23T01:03:19.256Z,37.13
2018-03-23T01:05:46.867Z,41.23
2018-03-23T01:08:14.507Z,43.47
2018-03-23T01:10:42.097Z,36.83
2018-03-23T01:13:09.735Z,49.57
2018-03-23T01:15:37.466Z,37.30
2018-03-23T01:18:05.111Z,33.93
2018-03-23T01:20:32.718Z,47.97
2018-03-23T01:23:00.317Z,38.20
2018-03-23T01:25:27.914Z,37.97
2018-03-23T01:27:55.590Z,39.63
2018-03-23T01:30:23.188Z,33.90
2018-03-23T01:32:50.821Z,35.27
2018-03-23T01:35:18.422Z,47.67
2018-03-23T01:37:46.047Z,35.40
2018-03-23T01:40:13.665Z,41.57
2018-03-23T01:42:41.289Z,41.13
2018-03-23T01:45:08.909Z,38.20
2018-03-23T01:47:36.557Z,35.10
2018-03-23T01:50:04.151Z,47.70
2018-03-23T01:52:31.782Z,36.97
2018-03-23T01:54:59.390Z,41.70
2018-03-23T01:57:27.030Z,43.43
2018-03-23T01:59:54.723Z,40.57
2018-03-23T02:02:22.354Z,39.60
2018-03-23T02:04:49.972Z,37.30
2018-03-23T02:07:17.674Z,38.43
2018-03-23T02:09:45.313Z,34.57
2018-03-23T02:12:12.946Z,40.53
2018-03-23T02:14:40.575Z,45.03
2018-03-23T02:17:08.214Z,35.80
2018-03-23T02:19:35.822Z,34.80
2018-03-23T02:22:03.482Z,38.60
2018-03-23T02:24:31.078Z,32.83
2018-03-23T02:26:58.697Z,37.50
2018-03-23T02:29:26.318Z,37.63
2018-03-23T02:31:53.942Z,39.77
2018-03-23T02:34:21.575Z,43.20
2018-03-23T02:36:49.186Z,32.03
2018-03-23T02:39:16.832Z,35.60
2018-03-23T02:41:44.482Z,39.23
2018-03-23T02:44:12.091Z,41.07
2018-03-23T02:46:39.712Z,46.13
2018-03-23T02:49:07.331Z,39.30
2018-03-23T02:51:34.920Z,38.60
2018-03-23T02:54:02.543Z,37.20
2018-03-23T02:56:30.156Z,42.00
2018-03-23T02:58:57.795Z,38.40
2018-03-23T03:01:25.383Z,41.03
2018-03-23T03:03:53.019Z,41.07
2018-03-23T03:06:20.636Z,42.70
2018-03-23T03:08:48.283Z,41.10
2018-03-23T03:11:15.878Z,41.77
2018-03-23T03:13:43.505Z,33.53
2018-03-23T03:16:11.109Z,37.70
2018-03-23T03:18:38.767Z,35.70
2018-03-23T03:21:06.370Z,38.80
2018-03-23T03:23:34.002Z,33.87
2018-03-23T03:26:01.606Z,36.00
2018-03-23T03:28:29.223Z,35.17
2018-03-23T03:30:56.834Z,28.97
2018-03-23T03:33:24.541Z,32.53
2018-03-23T03:35:52.156Z,34.50
2018-03-23T03:38:19.798Z,37.37
2018-03-23T03:40:47.391Z,40.43
2018-03-23T03:43:15.075Z,33.43
2018-03-23T03:45:42.667Z,31.00
2018-03-23T03:48:10.415Z,27.40
2018-03-23T03:50:38.005Z,35.73
2018-03-23T03:53:05.603Z,31.30
2018-03-23T03:55:33.202Z,30.30
2018-03-23T03:58:00.846Z,34.43
2018-03-23T04:00:28.454Z,30.40
2018-03-23T04:02:56.161Z,34.67
2018-03-23T04:05:23.758Z,33.20
2018-03-23T04:07:51.631Z,59.17
2018-03-23T04:10:19.222Z,43.40
2018-03-23T04:12:46.883Z,48.40
2018-03-23T04:15:14.487Z,55.93
2018-03-23T04:17:42.118Z,46.53
2018-03-23T04:20:09.744Z,52.07
2018-03-23T04:22:37.367Z,49.63
2018-03-23T04:25:04.976Z,51.43
2018-03-23T04:27:32.595Z,45.03
2018-03-23T04:30:00.178Z,43.13
2018-03-23T04:32:27.808Z,43.40
2018-03-23T04:34:55.459Z,40.43
2018-03-23T04:37:23.083Z,48.50
2018-03-23T04:39:50.719Z,36.90
2018-03-23T04:42:18.334Z,40.20
2018-03-23T04:44:45.968Z,45.53
2018-03-23T04:47:13.683Z,39.73
2018-03-23T04:49:41.310Z,43.93
2018-03-23T04:52:08.910Z,51.03
2018-03-23T04:54:36.575Z,41.77
2018-03-23T04:57:04.169Z,41.77
2018-03-23T04:59:31.789Z,49.77
2018-03-23T05:01:59.384Z,38.03
2018-03-23T05:04:27.027Z,42.33
2018-03-23T05:06:54.624Z,40.20
2018-03-23T05:09:22.239Z,40.97
2018-03-23T05:11:49.849Z,38.13
2018-03-23T05:14:17.548Z,35.83
2018-03-23T05:16:45.145Z,33.20
2018-03-23T05:19:12.770Z,41.17
2018-03-23T05:21:40.399Z,35.37
2018-03-23T05:24:08.038Z,36.63
2018-03-23T05:26:35.635Z,29.03
2018-03-23T05:29:03.260Z,34.20
2018-03-23T05:31:30.872Z,34.07
2018-03-23T05:33:58.546Z,24.50
2018-03-23T05:36:26.147Z,27.80
2018-03-23T05:38:53.784Z,30.07
2018-03-23T05:41:21.398Z,30.30
2018-03-23T05:43:49.036Z,29.27
2018-03-23T05:46:16.625Z,31.10
2018-03-23T05:48:44.260Z,29.60
2018-03-23T05:51:11.884Z,26.07
2018-03-23T05:53:39.502Z,28.00
2018-03-23T05:56:07.091Z,22.27
2018-03-23T05:58:34.811Z,26.93
2018-03-23T06:01:02.423Z,23.47
2018-03-23T06:03:30.039Z,24.63
2018-03-23T06:05:57.784Z,24.73
2018-03-23T06:08:25.446Z,20.83
2018-03-23T06:10:53.046Z,26.20
2018-03-23T06:13:20.665Z,21.30
2018-03-23T06:15:48.270Z,21.87
2018-03-23T06:18:15.881Z,25.10
2018-03-23T06:20:43.474Z,26.57
2018-03-23T06:23:11.106Z,22.50
2018-03-23T06:25:38.690Z,25.43
2018-03-23T06:28:06.283Z,25.83
2018-03-23T06:30:33.923Z,25.87
2018-03-23T06:33:01.516Z,27.10
2018-03-23T06:35:29.155Z,25.60
2018-03-23T06:37:56.756Z,24.63
2018-03-23T06:40:24.400Z,23.20
2018-03-23T06:42:51.989Z,26.93
2018-03-23T06:45:19.624Z,23.73
2018-03-23T06:47:47.218Z,26.53
2018-03-23T06:50:14.855Z,19.93
2018-03-23T06:52:42.470Z,23.77
2018-03-23T06:55:10.094Z,25.00
2018-03-23T06:57:37.735Z,23.33
2018-03-23T07:00:05.366Z,23.00
2018-03-23T07:02:32.976Z,23.47
2018-03-23T07:05:00.615Z,24.80
2018-03-23T07:07:28.242Z,23.63
2018-03-23T07:09:55.946Z,28.60
2018-03-23T07:12:23.546Z,21.53
2018-03-23T07:14:51.160Z,23.90
2018-03-23T07:17:18.755Z,19.80
2018-03-23T07:19:46.382Z,21.10
2018-03-23T07:22:13.976Z,22.93
2018-03-23T07:24:41.646Z,22.13
2018-03-23T07:27:09.230Z,22.80
2018-03-23T07:29:36.886Z,24.00
2018-03-23T07:32:04.486Z,19.60
2018-03-23T07:34:32.107Z,22.60
2018-03-23T07:36:59.807Z,21.33
2018-03-23T07:39:27.422Z,25.03
2018-03-23T07:41:55.489Z,18.43
2018-03-23T07:44:23.122Z,21.20
2018-03-23T07:46:50.722Z,22.63
2018-03-23T07:49:18.342Z,25.10
2018-03-23T07:51:45.943Z,30.87
2018-03-23T07:54:13.610Z,25.70
2018-03-23T07:56:41.223Z,24.73
2018-03-23T07:59:08.915Z,27.53
2018-03-23T08:01:36.528Z,21.67
2018-03-23T08:04:04.142Z,20.60
2018-03-23T08:06:31.744Z,24.70
2018-03-23T08:08:59.459Z,28.20
2018-03-23T08:11:27.060Z,29.53
2018-03-23T08:13:54.695Z,24.47
2018-03-23T08:16:22.302Z,25.20
2018-03-23T08:18:49.964Z,23.67
2018-03-23T08:21:17.558Z,22.90
2018-03-23T08:23:45.175Z,24.23
2018-03-23T08:26:12.763Z,24.30
2018-03-23T08:28:40.450Z,19.40
2018-03-23T08:31:08.017Z,24.63
2018-03-23T08:33:35.747Z,22.83
2018-03-23T08:36:03.334Z,24.53
2018-03-23T08:38:30.952Z,18.73
2018-03-23T08:40:58.550Z,21.73
2018-03-23T08:43:26.178Z,22.90
2018-03-23T08:45:53.771Z,21.43
2018-03-23T08:48:21.410Z,22.80
2018-03-23T08:50:49.049Z,17.90
2018-03-23T08:53:16.674Z,22.27
2018-03-23T08:55:44.346Z,20.00
2018-03-23T08:58:11.971Z,26.27
2018-03-23T09:00:39.623Z,26.23
2018-03-23T09:03:07.253Z,19.37
2018-03-23T09:05:34.840Z,20.03
2018-03-23T09:08:02.534Z,19.27
2018-03-23T09:10:30.143Z,18.63
2018-03-23T09:12:57.765Z,21.70
2018-03-23T09:15:25.415Z,17.07
2018-03-23T09:17:53.048Z,16.37
2018-03-23T09:20:20.645Z,15.30
2018-03-23T09:22:48.298Z,21.33
2018-03-23T09:25:15.886Z,14.37
2018-03-23T09:27:43.531Z,15.50
2018-03-23T09:30:11.239Z,15.47
2018-03-23T09:32:38.835Z,17.27
2018-03-23T09:35:06.450Z,20.10
2018-03-23T09:37:34.083Z,20.33
2018-03-23T09:40:01.678Z,25.17
2018-03-23T09:42:29.355Z,15.77
2018-03-23T09:44:56.965Z,18.90
2018-03-23T09:47:24.596Z,13.50
2018-03-23T09:49:52.203Z,17.93
2018-03-23T09:52:19.806Z,17.00
2018-03-23T09:54:47.423Z,18.27
2018-03-23T09:57:15.193Z,16.60
2018-03-23T09:59:42.782Z,15.07
2018-03-23T10:02:10.371Z,15.83
2018-03-23T10:04:37.988Z,11.60
2018-03-23T10:07:05.562Z,13.30
2018-03-23T10:09:33.251Z,15.47
2018-03-23T10:12:00.842Z,14.37
2018-03-23T10:14:28.529Z,15.80
2018-03-23T10:16:56.139Z,18.03
2018-03-23T10:19:23.814Z,19.63
2018-03-23T10:21:51.405Z,13.23
2018-03-23T10:24:19.027Z,15.93
2018-03-23T10:26:46.614Z,12.87
2018-03-23T10:29:14.278Z,12.40
2018-03-23T10:31:41.874Z,16.27
2018-03-23T10:34:09.530Z,15.63
2018-03-23T10:36:37.110Z,16.17
2018-03-23T10:39:04.777Z,14.40
2018-03-23T10:41:32.431Z,11.27
2018-03-23T10:44:00.060Z,14.33
2018-03-23T10:46:27.660Z,16.53
2018-03-23T10:48:55.327Z,13.77
2018-03-23T10:51:22.953Z,13.17
2018-03-23T10:53:50.579Z,11.97
2018-03-23T10:56:18.171Z,12.83
2018-03-23T10:58:45.798Z,12.73
2018-03-23T11:01:18.751Z,16.63
2018-03-23T11:03:46.359Z,14.90
2018-03-23T11:06:13.958Z,12.30
2018-03-23T11:08:41.590Z,14.13
2018-03-23T11:11:09.209Z,13.50
2018-03-23T11:13:36.834Z,13.50
2018-03-23T11:16:04.443Z,12.97
2018-03-23T11:18:32.111Z,11.10
2018-03-23T11:20:59.698Z,10.47
2018-03-23T11:23:27.346Z,12.07
2018-03-23T11:25:54.958Z,13.00
2018-03-23T11:28:22.578Z,11.17
2018-03-23T11:30:50.171Z,14.60
2018-03-23T11:33:17.834Z,16.30
2018-03-23T11:35:45.419Z,10.97
2018-03-23T11:38:13.070Z,23.47
2018-03-23T11:40:40.674Z,15.83
2018-03-23T11:43:08.342Z,11.90
2018-03-23T11:45:35.945Z,14.93
2018-03-23T11:48:03.613Z,15.33
2018-03-23T11:50:31.215Z,16.30
2018-03-23T11:52:58.838Z,13.37
2018-03-23T11:55:26.426Z,14.93
2018-03-23T11:57:54.060Z,13.37
2018-03-23T12:00:21.667Z,10.70
2018-03-23T12:02:49.296Z,11.87
2018-03-23T12:05:16.886Z,11.10
2018-03-23T12:07:44.539Z,13.23
2018-03-23T12:10:12.138Z,14.00
2018-03-23T12:12:40.015Z,15.70
2018-03-23T12:15:07.620Z,9.77
2018-03-23T12:17:35.229Z,11.30
2018-03-23T12:20:02.891Z,12.63
2018-03-23T12:22:30.515Z,11.60
2018-03-23T12:24:58.126Z,9.57
2018-03-23T12:27:25.859Z,12.40
2018-03-23T12:29:53.424Z,11.07
2018-03-23T12:32:21.034Z,11.00
2018-03-23T12:34:48.703Z,15.87
2018-03-23T12:37:16.256Z,12.97
2018-03-23T12:39:43.856Z,10.07
2018-03-23T12:42:11.474Z,10.83
2018-03-23T12:44:39.078Z,11.93
2018-03-23T12:47:06.704Z,12.93
2018-03-23T12:49:34.314Z,11.63
2018-03-23T12:52:01.909Z,11.00
2018-03-23T12:54:29.534Z,12.03
2018-03-23T12:56:57.138Z,14.87
2018-03-23T12:59:24.753Z,12.00
2018-03-23T13:01:52.383Z,14.97
2018-03-23T13:04:19.974Z,12.40
2018-03-23T13:06:47.600Z,15.40
2018-03-23T13:09:15.262Z,14.23
2018-03-23T13:11:42.898Z,14.23
2018-03-23T13:14:10.530Z,11.63
2018-03-23T13:16:38.129Z,11.30
2018-03-23T13:19:05.746Z,8.70
2018-03-23T13:21:33.331Z,8.83
2018-03-23T13:24:01.018Z,10.70
2018-03-23T13:26:28.631Z,7.57
2018-03-23T13:28:56.258Z,11.47
2018-03-23T13:31:23.867Z,8.57
2018-03-23T13:33:51.486Z,14.20
2018-03-23T13:36:19.226Z,13.20
2018-03-23T13:38:46.935Z,9.73
2018-03-23T13:41:14.556Z,8.97
2018-03-23T13:43:42.165Z,13.93
2018-03-23T13:46:09.802Z,11.27
2018-03-23T13:48:37.419Z,12.07
2018-03-23T13:51:05.023Z,14.83
2018-03-23T13:53:32.654Z,10.30
2018-03-23T13:56:00.259Z,10.57
2018-03-23T13:58:33.449Z,13.57
2018-03-23T14:01:01.760Z,8.57
2018-03-23T14:03:29.377Z,10.50
2018-03-23T14:05:56.972Z,15.73
2018-03-23T14:08:24.601Z,9.47
2018-03-23T14:10:52.187Z,9.60
2018-03-23T14:13:19.832Z,9.40
2018-03-23T14:15:47.443Z,11.73
2018-03-23T14:18:15.060Z,9.90
2018-03-23T14:20:42.648Z,7.33
2018-03-23T14:23:10.251Z,10.00
2018-03-23T14:25:38.010Z,8.30
2018-03-23T14:28:05.618Z,8.40
2018-03-23T14:30:33.295Z,9.57
2018-03-23T14:33:00.947Z,9.10
2018-03-23T14:35:28.542Z,8.03
2018-03-23T14:37:56.299Z,9.33
2018-03-23T14:40:23.958Z,7.27
2018-03-23T14:42:51.585Z,10.67
2018-03-23T14:45:19.199Z,9.27
2018-03-23T14:47:46.823Z,7.13
2018-03-23T14:50:14.426Z,6.90
2018-03-23T14:52:42.048Z,7.57
2018-03-23T14:55:09.631Z,6.27
2018-03-23T14:57:37.259Z,8.83
2018-03-23T15:00:04.881Z,8.97
2018-03-23T15:02:32.510Z,10.40
2018-03-23T15:05:00.096Z,7.27
2018-03-23T15:07:27.707Z,6.70
2018-03-23T15:09:55.328Z,6.03
2018-03-23T15:12:22.951Z,7.53
2018-03-23T15:14:50.626Z,7.07
2018-03-23T15:17:18.231Z,6.83
2018-03-23T15:19:45.857Z,6.97
2018-03-23T15:22:13.482Z,7.30
2018-03-23T15:24:41.069Z,6.17
2018-03-23T15:27:08.762Z,6.30
2018-03-23T15:29:36.363Z,7.60
2018-03-23T15:32:04.091Z,7.97
2018-03-23T15:34:31.682Z,7.27
2018-03-23T15:36:59.472Z,8.63
2018-03-23T15:39:27.078Z,8.03
2018-03-23T15:41:54.756Z,6.53
2018-03-23T15:44:22.366Z,7.53
2018-03-23T15:46:49.950Z,8.20
2018-03-23T15:49:17.574Z,10.03
2018-03-23T15:51:45.187Z,11.10
2018-03-23T15:54:12.807Z,7.33
2018-03-23T15:56:40.386Z,6.90
2018-03-23T15:59:08.008Z,8.33
2018-03-23T16:01:35.601Z,7.27
2018-03-23T16:04:03.235Z,8.50
2018-03-23T16:06:30.837Z,9.73
2018-03-23T16:08:58.462Z,11.57
2018-03-23T16:11:26.054Z,7.87
2018-03-23T16:13:53.701Z,8.37
2018-03-23T16:16:21.283Z,9.07
2018-03-23T16:18:48.910Z,13.20
2018-03-23T16:21:16.506Z,11.50
2018-03-23T16:23:44.122Z,7.87
2018-03-23T16:26:11.742Z,9.43
2018-03-23T16:28:39.354Z,13.60
2018-03-23T16:31:06.948Z,11.23
2018-03-23T16:33:34.622Z,10.80
2018-03-23T16:36:02.222Z,10.27
2018-03-23T16:38:29.831Z,13.50
2018-03-23T16:40:57.427Z,14.13
2018-03-23T16:43:25.088Z,12.93
2018-03-23T16:45:52.710Z,14.80
2018-03-23T16:48:20.307Z,12.43
2018-03-23T16:50:47.948Z,17.73
2018-03-23T16:53:15.546Z,13.50
2018-03-23T16:55:43.168Z,19.20
2018-03-23T16:58:10.827Z,16.07
2018-03-23T17:00:38.427Z,12.27
2018-03-23T17:03:06.074Z,12.67
2018-03-23T17:05:33.730Z,13.07
2018-03-23T17:08:01.340Z,13.40
2018-03-23T17:10:28.951Z,15.80
2018-03-23T17:12:56.546Z,10.23
2018-03-23T17:15:24.151Z,14.90
2018-03-23T17:17:51.741Z,14.77
2018-03-23T17:20:19.429Z,10.33
2018-03-23T17:22:47.029Z,13.97
2018-03-23T17:25:14.712Z,18.10
2018-03-23T17:27:42.324Z,16.50
2018-03-23T17:30:09.990Z,17.03
2018-03-23T17:32:37.610Z,19.80
2018-03-23T17:35:05.302Z,13.97
2018-03-23T17:37:32.895Z,17.57
2018-03-23T17:40:00.576Z,15.87
2018-03-23T17:42:28.187Z,19.13
2018-03-23T17:44:55.831Z,18.53
2018-03-23T17:47:23.435Z,10.60
2018-03-23T17:49:51.072Z,12.10
2018-03-23T17:52:18.725Z,11.67
2018-03-23T17:54:46.368Z,11.77
2018-03-23T17:57:13.958Z,11.67
2018-03-23T17:59:41.573Z,10.40
2018-03-23T18:02:09.224Z,15.03
2018-03-23T18:04:36.898Z,19.70
2018-03-23T18:07:04.564Z,19.87
2018-03-23T18:09:32.225Z,16.87
2018-03-23T18:11:59.825Z,12.87
2018-03-23T18:14:27.449Z,13.73
2018-03-23T18:16:55.097Z,12.90
2018-03-23T18:19:22.694Z,10.43
2018-03-23T18:21:50.327Z,13.13
2018-03-23T18:24:17.942Z,13.93
2018-03-23T18:26:45.572Z,11.73
2018-03-23T18:29:13.243Z,14.40
2018-03-23T18:31:40.938Z,13.33
2018-03-23T18:34:08.556Z,13.43
2018-03-23T18:36:36.211Z,14.83
2018-03-23T18:39:03.842Z,10.83
2018-03-23T18:41:31.470Z,12.20
2018-03-23T18:43:59.058Z,11.37
2018-03-23T18:46:26.714Z,14.63
2018-03-23T18:48:54.318Z,10.77
2018-03-23T18:51:21.945Z,13.37
2018-03-23T18:53:49.538Z,11.53
2018-03-23T18:56:17.166Z,13.77
2018-03-23T18:58:44.763Z,11.63
2018-03-23T19:01:12.404Z,12.73
2018-03-23T19:03:39.987Z,12.50
2018-03-23T19:06:07.616Z,10.70
2018-03-23T19:08:35.226Z,14.90
2018-03-23T19:11:03.961Z,10.90
2018-03-23T19:13:31.558Z,13.50
2018-03-23T19:15:59.186Z,13.33
2018-03-23T19:18:26.790Z,11.00
2018-03-23T19:20:54.416Z,10.67
2018-03-23T19:23:22.028Z,11.90
2018-03-23T19:25:49.690Z,13.00
2018-03-23T19:28:17.285Z,16.00
2018-03-23T19:30:44.908Z,12.90
2018-03-23T19:33:11.789Z,16.10
2018-03-23T19:35:38.716Z,12.07
2018-03-23T19:38:05.593Z,10.63
2018-03-23T19:40:32.486Z,12.90
2018-03-23T19:42:59.375Z,12.00
2018-03-23T19:45:26.278Z,17.33
2018-03-23T19:47:53.162Z,20.23
2018-03-23T19:50:20.105Z,10.97
2018-03-23T19:52:46.963Z,12.47
2018-03-23T19:55:13.910Z,10.50
2018-03-23T19:57:40.774Z,17.50
2018-03-23T20:00:07.686Z,14.37
2018-03-23T20:02:34.624Z,9.40
2018-03-23T20:05:01.537Z,15.30
2018-03-23T20:07:28.456Z,14.23
2018-03-23T20:09:55.329Z,9.47
2018-03-23T20:12:22.239Z,12.30
2018-03-23T20:14:49.108Z,13.60
2018-03-23T20:17:21.824Z,13.40
2018-03-23T20:19:48.754Z,8.77
2018-03-23T20:22:15.609Z,10.90
2018-03-23T20:24:42.581Z,13.00
2018-03-23T20:27:15.201Z,12.50
2018-03-23T20:29:42.116Z,10.90
2018-03-23T20:32:14.582Z,13.53
2018-03-23T20:34:41.453Z,11.60
2018-03-23T20:37:08.421Z,10.07
2018-03-23T20:39:35.315Z,9.53
2018-03-23T20:42:02.174Z,12.83
2018-03-23T20:44:29.037Z,9.20
2018-03-23T20:46:55.921Z,9.90
2018-03-23T20:49:22.790Z,11.90
2018-03-23T20:51:49.724Z,10.20
2018-03-23T20:54:16.599Z,10.87
2018-03-23T20:56:43.591Z,12.00
2018-03-23T20:59:10.482Z,10.77
2018-03-23T21:01:37.378Z,9.87
2018-03-23T21:04:04.292Z,10.67
2018-03-23T21:06:31.195Z,9.80
2018-03-23T21:08:58.241Z,11.33
2018-03-23T21:11:25.118Z,10.07
2018-03-23T21:13:52.049Z,22.30
2018-03-23T21:16:18.955Z,13.40
2018-03-23T21:18:45.949Z,10.40
2018-03-23T21:21:12.810Z,9.33
2018-03-23T21:23:39.764Z,9.57
2018-03-23T21:26:06.684Z,10.17
2018-03-23T21:28:33.719Z,10.27
2018-03-23T21:31:00.605Z,11.27
2018-03-23T21:33:27.512Z,10.70
2018-03-23T21:35:54.395Z,10.40
2018-03-23T21:38:21.301Z,9.97
2018-03-23T21:40:48.177Z,12.67
2018-03-23T21:43:15.076Z,10.70
2018-03-23T21:45:41.945Z,12.17
2018-03-23T21:48:08.830Z,8.40
2018-03-23T21:50:35.701Z,10.43
2018-03-23T21:53:02.611Z,9.67
2018-03-23T21:55:29.493Z,10.70
2018-03-23T21:57:56.425Z,12.27
2018-03-23T22:00:23.306Z,12.93
2018-03-23T22:02:50.323Z,16.93
2018-03-23T22:05:17.190Z,12.50
2018-03-23T22:07:44.097Z,11.80
2018-03-23T22:10:10.972Z,14.93
2018-03-23T22:12:37.859Z,12.50
2018-03-23T22:15:04.744Z,11.23
2018-03-23T22:17:31.696Z,14.53
2018-03-23T22:19:58.595Z,10.93
2018-03-23T22:22:25.498Z,10.83
2018-03-23T22:24:52.343Z,11.60
2018-03-23T22:27:19.251Z,44.07
2018-03-23T22:29:46.203Z,13.00
2018-03-23T22:32:13.108Z,11.50
2018-03-23T22:34:40.003Z,14.93
2018-03-23T22:37:06.885Z,14.93
2018-03-23T22:39:33.774Z,12.97
2018-03-23T22:42:00.801Z,14.93
2018-03-23T22:44:27.666Z,11.63
2018-03-23T22:46:54.567Z,11.50
2018-03-23T22:49:21.453Z,11.63
2018-03-23T22:51:48.362Z,14.00
2018-03-23T22:54:16.762Z,16.23
2018-03-23T22:56:43.662Z,14.30
2018-03-23T22:59:10.630Z,14.43
2018-03-23T23:01:37.514Z,17.03
2018-03-23T23:04:04.406Z,15.60
2018-03-23T23:06:31.298Z,15.50
2018-03-23T23:08:58.222Z,15.03
2018-03-23T23:11:25.126Z,15.67
2018-03-23T23:13:52.019Z,14.60
2018-03-23T23:16:18.937Z,13.70
2018-03-23T23:18:45.813Z,13.63
2018-03-23T23:21:12.790Z,16.30
2018-03-23T23:23:39.719Z,16.40
2018-03-23T23:26:06.694Z,12.50
2018-03-23T23:28:33.574Z,13.23
2018-03-23T23:31:00.456Z,11.20
2018-03-23T23:33:27.463Z,13.10
2018-03-23T23:35:54.403Z,14.47
2018-03-23T23:38:21.312Z,13.80
2018-03-23T23:40:48.316Z,21.77
2018-03-23T23:43:15.262Z,14.30
2018-03-23T23:45:42.157Z,14.57
2018-03-23T23:48:09.104Z,17.40
2018-03-23T23:50:35.981Z,13.53
2018-03-23T23:53:02.931Z,13.10
2018-03-23T23:55:29.798Z,13.10
2018-03-23T23:57:56.700Z,11.57
